You are listening to:
ZNY Bermuda Sector - Hamilton, Bermuda

TXKF 282155Z 18004KT 150V210 9999 FEW020 SCT170 BKN300 25/21 Q1020

If stream doesn't start automatically press the play button
If stream stops then reload player then press play